sensor_id;sensor_type;location;lat;lon;timestamp;P1;durP1;ratioP1;P2;durP2;ratioP2
20637;SDS011;10478;49.004;8.470;2024-03-23T00:52:43;9.05;;;5.28;;
20637;SDS011;10478;49.004;8.470;2024-03-23T00:55:10;8.13;;;4.95;;
20637;SDS011;10478;49.004;8.470;2024-03-23T00:57:36;7.30;;;4.72;;
20637;SDS011;10478;49.004;8.470;2024-03-23T01:00:01;9.35;;;5.35;;
20637;SDS011;10478;49.004;8.470;2024-03-23T01:02:26;9.75;;;5.50;;
20637;SDS011;10478;49.004;8.470;2024-03-23T01:04:52;8.20;;;5.43;;
20637;SDS011;10478;49.004;8.470;2024-03-23T01:07:17;10.63;;;6.15;;
20637;SDS011;10478;49.004;8.470;2024-03-23T01:09:42;8.20;;;4.90;;
20637;SDS011;10478;49.004;8.470;2024-03-23T01:12:08;10.52;;;5.50;;
20637;SDS011;10478;49.004;8.470;2024-03-23T01:14:33;9.43;;;5.43;;
20637;SDS011;10478;49.004;8.470;2024-03-23T01:16:58;7.70;;;5.05;;
20637;SDS011;10478;49.004;8.470;2024-03-23T01:19:24;9.85;;;5.32;;
20637;SDS011;10478;49.004;8.470;2024-03-23T01:21:49;8.30;;;4.97;;
20637;SDS011;10478;49.004;8.470;2024-03-23T01:24:14;10.13;;;6.93;;
20637;SDS011;10478;49.004;8.470;2024-03-23T01:26:40;8.02;;;4.07;;
20637;SDS011;10478;49.004;8.470;2024-03-23T01:29:05;8.48;;;4.85;;
20637;SDS011;10478;49.004;8.470;2024-03-23T01:31:31;8.05;;;4.20;;
20637;SDS011;10478;49.004;8.470;2024-03-23T01:33:56;13.55;;;4.97;;
20637;SDS011;10478;49.004;8.470;2024-03-23T01:36:22;8.68;;;5.80;;
20637;SDS011;10478;49.004;8.470;2024-03-23T01:38:47;6.25;;;4.30;;
20637;SDS011;10478;49.004;8.470;2024-03-23T01:41:16;9.32;;;5.18;;
20637;SDS011;10478;49.004;8.470;2024-03-23T01:43:41;12.88;;;5.75;;
20637;SDS011;10478;49.004;8.470;2024-03-23T01:46:06;8.70;;;4.75;;
20637;SDS011;10478;49.004;8.470;2024-03-23T01:48:31;6.97;;;5.22;;
20637;SDS011;10478;49.004;8.470;2024-03-23T01:50:57;8.77;;;4.50;;
20637;SDS011;10478;49.004;8.470;2024-03-23T01:53:23;13.60;;;6.03;;
20637;SDS011;10478;49.004;8.470;2024-03-23T01:55:49;10.73;;;5.22;;
20637;SDS011;10478;49.004;8.470;2024-03-23T01:58:15;7.28;;;5.07;;
20637;SDS011;10478;49.004;8.470;2024-03-23T02:00:41;10.23;;;4.25;;
20637;SDS011;10478;49.004;8.470;2024-03-23T02:03:25;8.75;;;3.92;;
20637;SDS011;10478;49.004;8.470;2024-03-23T02:05:50;7.18;;;3.65;;
20637;SDS011;10478;49.004;8.470;2024-03-23T02:08:17;6.80;;;3.25;;
20637;SDS011;10478;49.004;8.470;2024-03-23T02:10:42;6.38;;;3.00;;
20637;SDS011;10478;49.004;8.470;2024-03-23T02:13:08;3.83;;;2.90;;
20637;SDS011;10478;49.004;8.470;2024-03-23T02:15:33;3.75;;;2.85;;
20637;SDS011;10478;49.004;8.470;2024-03-23T02:17:58;3.72;;;2.88;;
20637;SDS011;10478;49.004;8.470;2024-03-23T02:20:24;3.70;;;2.35;;
20637;SDS011;10478;49.004;8.470;2024-03-23T02:22:55;3.75;;;2.25;;
20637;SDS011;10478;49.004;8.470;2024-03-23T02:25:21;4.05;;;2.22;;
20637;SDS011;10478;49.004;8.470;2024-03-23T02:27:46;4.20;;;2.72;;
20637;SDS011;10478;49.004;8.470;2024-03-23T02:30:12;5.80;;;2.80;;
20637;SDS011;10478;49.004;8.470;2024-03-23T02:32:37;3.40;;;2.67;;
20637;SDS011;10478;49.004;8.470;2024-03-23T02:35:02;3.55;;;2.72;;
20637;SDS011;10478;49.004;8.470;2024-03-23T02:37:28;4.72;;;2.65;;
20637;SDS011;10478;49.004;8.470;2024-03-23T02:39:53;4.88;;;2.55;;
20637;SDS011;10478;49.004;8.470;2024-03-23T02:42:18;4.90;;;2.45;;
20637;SDS011;10478;49.004;8.470;2024-03-23T02:44:44;4.95;;;2.75;;
20637;SDS011;10478;49.004;8.470;2024-03-23T02:47:10;4.88;;;2.58;;
20637;SDS011;10478;49.004;8.470;2024-03-23T02:49:35;4.82;;;2.60;;
20637;SDS011;10478;49.004;8.470;2024-03-23T02:52:00;5.05;;;2.17;;
20637;SDS011;10478;49.004;8.470;2024-03-23T02:54:26;3.53;;;2.83;;
20637;SDS011;10478;49.004;8.470;2024-03-23T02:56:51;4.60;;;2.35;;
20637;SDS011;10478;49.004;8.470;2024-03-23T02:59:16;3.20;;;2.40;;
20637;SDS011;10478;49.004;8.470;2024-03-23T03:01:41;2.97;;;1.83;;
20637;SDS011;10478;49.004;8.470;2024-03-23T03:04:07;5.05;;;2.83;;
20637;SDS011;10478;49.004;8.470;2024-03-23T03:06:32;4.32;;;2.85;;
20637;SDS011;10478;49.004;8.470;2024-03-23T03:08:58;5.60;;;2.47;;
20637;SDS011;10478;49.004;8.470;2024-03-23T03:11:23;4.70;;;2.50;;
20637;SDS011;10478;49.004;8.470;2024-03-23T03:13:48;6.22;;;2.92;;
20637;SDS011;10478;49.004;8.470;2024-03-23T03:16:14;5.18;;;2.95;;
20637;SDS011;10478;49.004;8.470;2024-03-23T03:18:39;5.03;;;2.63;;
20637;SDS011;10478;49.004;8.470;2024-03-23T03:21:07;6.70;;;3.53;;
20637;SDS011;10478;49.004;8.470;2024-03-23T03:23:38;5.35;;;3.13;;
20637;SDS011;10478;49.004;8.470;2024-03-23T03:26:05;4.63;;;3.03;;
20637;SDS011;10478;49.004;8.470;2024-03-23T03:28:31;5.18;;;2.92;;
20637;SDS011;10478;49.004;8.470;2024-03-23T03:30:57;6.90;;;4.15;;
20637;SDS011;10478;49.004;8.470;2024-03-23T03:33:23;6.22;;;3.95;;
20637;SDS011;10478;49.004;8.470;2024-03-23T03:35:49;10.85;;;5.20;;
20637;SDS011;10478;49.004;8.470;2024-03-23T03:38:14;10.02;;;5.22;;
20637;SDS011;10478;49.004;8.470;2024-03-23T03:40:39;7.43;;;4.10;;
20637;SDS011;10478;49.004;8.470;2024-03-23T03:43:06;9.23;;;5.20;;
20637;SDS011;10478;49.004;8.470;2024-03-23T03:45:32;8.82;;;5.18;;
20637;SDS011;10478;49.004;8.470;2024-03-23T03:47:57;10.20;;;5.43;;
20637;SDS011;10478;49.004;8.470;2024-03-23T03:50:24;9.50;;;5.47;;
20637;SDS011;10478;49.004;8.470;2024-03-23T03:52:49;13.18;;;6.75;;
20637;SDS011;10478;49.004;8.470;2024-03-23T03:55:15;14.30;;;6.80;;
20637;SDS011;10478;49.004;8.470;2024-03-23T03:57:41;9.10;;;6.20;;
20637;SDS011;10478;49.004;8.470;2024-03-23T04:00:06;11.05;;;6.72;;
20637;SDS011;10478;49.004;8.470;2024-03-23T04:02:36;12.82;;;6.72;;
20637;SDS011;10478;49.004;8.470;2024-03-23T04:05:01;13.00;;;7.20;;
20637;SDS011;10478;49.004;8.470;2024-03-23T04:07:28;13.63;;;6.70;;
20637;SDS011;10478;49.004;8.470;2024-03-23T04:09:53;14.45;;;6.32;;
20637;SDS011;10478;49.004;8.470;2024-03-23T04:12:19;16.73;;;7.80;;
20637;SDS011;10478;49.004;8.470;2024-03-23T04:14:45;14.07;;;7.40;;
20637;SDS011;10478;49.004;8.470;2024-03-23T04:17:10;19.90;;;7.55;;
20637;SDS011;10478;49.004;8.470;2024-03-23T04:19:35;11.82;;;7.05;;
20637;SDS011;10478;49.004;8.470;2024-03-23T04:22:00;16.17;;;7.55;;
20637;SDS011;10478;49.004;8.470;2024-03-23T04:24:26;12.98;;;7.32;;
20637;SDS011;10478;49.004;8.470;2024-03-23T04:26:51;15.27;;;7.13;;
20637;SDS011;10478;49.004;8.470;2024-03-23T04:29:17;11.65;;;6.75;;
20637;SDS011;10478;49.004;8.470;2024-03-23T04:31:42;11.88;;;6.75;;
20637;SDS011;10478;49.004;8.470;2024-03-23T04:34:08;10.65;;;5.78;;
20637;SDS011;10478;49.004;8.470;2024-03-23T04:36:33;14.95;;;6.63;;
20637;SDS011;10478;49.004;8.470;2024-03-23T04:38:59;13.75;;;7.43;;
20637;SDS011;10478;49.004;8.470;2024-03-23T04:41:24;14.98;;;8.40;;
20637;SDS011;10478;49.004;8.470;2024-03-23T04:43:50;16.58;;;8.77;;
20637;SDS011;10478;49.004;8.470;2024-03-23T04:46:16;15.30;;;8.32;;
20637;SDS011;10478;49.004;8.470;2024-03-23T04:48:41;20.42;;;8.63;;
20637;SDS011;10478;49.004;8.470;2024-03-23T04:51:06;17.42;;;9.88;;
20637;SDS011;10478;49.004;8.470;2024-03-23T04:53:32;13.80;;;6.88;;
20637;SDS011;10478;49.004;8.470;2024-03-23T04:55:58;16.10;;;8.50;;
20637;SDS011;10478;49.004;8.470;2024-03-23T04:58:24;14.80;;;8.07;;
20637;SDS011;10478;49.004;8.470;2024-03-23T05:00:56;18.58;;;8.18;;
20637;SDS011;10478;49.004;8.470;2024-03-23T05:03:22;10.27;;;6.25;;
20637;SDS011;10478;49.004;8.470;2024-03-23T05:05:48;9.98;;;5.80;;
20637;SDS011;10478;49.004;8.470;2024-03-23T05:08:13;9.43;;;5.82;;
20637;SDS011;10478;49.004;8.470;2024-03-23T05:10:40;10.63;;;5.10;;
20637;SDS011;10478;49.004;8.470;2024-03-23T05:13:06;12.05;;;5.93;;
20637;SDS011;10478;49.004;8.470;2024-03-23T05:15:31;12.13;;;5.60;;
20637;SDS011;10478;49.004;8.470;2024-03-23T05:17:57;9.07;;;5.05;;
20637;SDS011;10478;49.004;8.470;2024-03-23T05:20:22;10.30;;;5.38;;
20637;SDS011;10478;49.004;8.470;2024-03-23T05:22:48;8.98;;;4.63;;
20637;SDS011;10478;49.004;8.470;2024-03-23T05:25:14;9.68;;;5.25;;
20637;SDS011;10478;49.004;8.470;2024-03-23T05:27:40;10.60;;;4.72;;
20637;SDS011;10478;49.004;8.470;2024-03-23T05:30:06;7.68;;;4.13;;
20637;SDS011;10478;49.004;8.470;2024-03-23T05:32:32;3.92;;;1.95;;
20637;SDS011;10478;49.004;8.470;2024-03-23T05:34:57;4.32;;;2.22;;
20637;SDS011;10478;49.004;8.470;2024-03-23T05:37:23;3.45;;;2.00;;
20637;SDS011;10478;49.004;8.470;2024-03-23T05:39:48;3.65;;;1.95;;
20637;SDS011;10478;49.004;8.470;2024-03-23T05:42:16;4.32;;;1.20;;
20637;SDS011;10478;49.004;8.470;2024-03-23T05:44:46;3.92;;;2.10;;
20637;SDS011;10478;49.004;8.470;2024-03-23T05:47:11;2.45;;;1.33;;
20637;SDS011;10478;49.004;8.470;2024-03-23T05:49:41;3.80;;;1.85;;
20637;SDS011;10478;49.004;8.470;2024-03-23T05:52:07;3.60;;;1.48;;
20637;SDS011;10478;49.004;8.470;2024-03-23T05:54:33;2.42;;;1.23;;
20637;SDS011;10478;49.004;8.470;2024-03-23T05:56:58;1.42;;;0.73;;
20637;SDS011;10478;49.004;8.470;2024-03-23T05:59:24;1.30;;;0.75;;
20637;SDS011;10478;49.004;8.470;2024-03-23T06:01:49;3.22;;;1.50;;
20637;SDS011;10478;49.004;8.470;2024-03-23T06:04:15;2.08;;;1.13;;
20637;SDS011;10478;49.004;8.470;2024-03-23T06:06:40;3.65;;;1.35;;
20637;SDS011;10478;49.004;8.470;2024-03-23T06:09:05;1.77;;;1.10;;
20637;SDS011;10478;49.004;8.470;2024-03-23T06:11:31;2.30;;;1.30;;
20637;SDS011;10478;49.004;8.470;2024-03-23T06:13:56;2.47;;;1.67;;
20637;SDS011;10478;49.004;8.470;2024-03-23T06:16:21;1.70;;;1.00;;
20637;SDS011;10478;49.004;8.470;2024-03-23T06:18:50;4.32;;;1.95;;
20637;SDS011;10478;49.004;8.470;2024-03-23T06:21:15;1.75;;;0.93;;
20637;SDS011;10478;49.004;8.470;2024-03-23T06:23:41;0.95;;;0.63;;
20637;SDS011;10478;49.004;8.470;2024-03-23T06:26:07;1.83;;;0.90;;
20637;SDS011;10478;49.004;8.470;2024-03-23T06:28:33;1.90;;;0.85;;
20637;SDS011;10478;49.004;8.470;2024-03-23T06:30:58;2.88;;;1.25;;
20637;SDS011;10478;49.004;8.470;2024-03-23T06:33:24;8.23;;;3.85;;
20637;SDS011;10478;49.004;8.470;2024-03-23T06:35:50;2.03;;;1.30;;
20637;SDS011;10478;49.004;8.470;2024-03-23T06:38:18;1.40;;;0.80;;
20637;SDS011;10478;49.004;8.470;2024-03-23T06:40:44;2.15;;;1.33;;
20637;SDS011;10478;49.004;8.470;2024-03-23T06:43:13;1.90;;;0.77;;
20637;SDS011;10478;49.004;8.470;2024-03-23T06:45:39;1.98;;;0.90;;
20637;SDS011;10478;49.004;8.470;2024-03-23T06:48:04;1.73;;;0.93;;
20637;SDS011;10478;49.004;8.470;2024-03-23T06:50:32;1.52;;;0.60;;
20637;SDS011;10478;49.004;8.470;2024-03-23T06:52:58;1.08;;;0.68;;
20637;SDS011;10478;49.004;8.470;2024-03-23T06:55:23;0.80;;;0.70;;
20637;SDS011;10478;49.004;8.470;2024-03-23T06:57:51;1.42;;;0.70;;
20637;SDS011;10478;49.004;8.470;2024-03-23T07:00:16;0.85;;;0.47;;
20637;SDS011;10478;49.004;8.470;2024-03-23T07:02:42;2.60;;;0.60;;
20637;SDS011;10478;49.004;8.470;2024-03-23T07:05:09;1.30;;;0.82;;
20637;SDS011;10478;49.004;8.470;2024-03-23T07:07:34;0.88;;;0.40;;
20637;SDS011;10478;49.004;8.470;2024-03-23T07:10:00;1.02;;;0.50;;
20637;SDS011;10478;49.004;8.470;2024-03-23T07:12:25;0.85;;;0.30;;
20637;SDS011;10478;49.004;8.470;2024-03-23T07:14:50;0.40;;;0.22;;
20637;SDS011;10478;49.004;8.470;2024-03-23T07:17:16;4.82;;;1.40;;
20637;SDS011;10478;49.004;8.470;2024-03-23T07:19:43;6.97;;;3.75;;
20637;SDS011;10478;49.004;8.470;2024-03-23T07:22:08;1.35;;;0.75;;
20637;SDS011;10478;49.004;8.470;2024-03-23T07:24:33;0.98;;;0.10;;
20637;SDS011;10478;49.004;8.470;2024-03-23T07:26:59;1.88;;;1.10;;
20637;SDS011;10478;49.004;8.470;2024-03-23T07:29:24;0.20;;;0.20;;
20637;SDS011;10478;49.004;8.470;2024-03-23T07:31:50;0.40;;;0.10;;
20637;SDS011;10478;49.004;8.470;2024-03-23T07:34:15;0.20;;;0.10;;
20637;SDS011;10478;49.004;8.470;2024-03-23T07:36:40;0.10;;;0.08;;
20637;SDS011;10478;49.004;8.470;2024-03-23T07:39:06;0.30;;;0.15;;
20637;SDS011;10478;49.004;8.470;2024-03-23T07:41:32;0.40;;;0.15;;
20637;SDS011;10478;49.004;8.470;2024-03-23T07:43:58;0.95;;;0.10;;
20637;SDS011;10478;49.004;8.470;2024-03-23T07:46:23;0.03;;;0.03;;
20637;SDS011;10478;49.004;8.470;2024-03-23T07:48:50;0.10;;;0.10;;
20637;SDS011;10478;49.004;8.470;2024-03-23T07:51:16;0.17;;;0.10;;
20637;SDS011;10478;49.004;8.470;2024-03-23T07:53:43;0.30;;;0.20;;
20637;SDS011;10478;49.004;8.470;2024-03-23T07:56:09;0.20;;;0.10;;
20637;SDS011;10478;49.004;8.470;2024-03-23T07:58:35;0.13;;;0.13;;
20637;SDS011;10478;49.004;8.470;2024-03-23T08:01:34;0.00;;;0.00;;
20637;SDS011;10478;49.004;8.470;2024-03-23T08:03:53;1.05;;;0.30;;
20637;SDS011;10478;49.004;8.470;2024-03-23T08:06:19;0.40;;;0.22;;
20637;SDS011;10478;49.004;8.470;2024-03-23T08:08:48;0.70;;;0.28;;
20637;SDS011;10478;49.004;8.470;2024-03-23T08:11:15;1.55;;;0.30;;
20637;SDS011;10478;49.004;8.470;2024-03-23T08:13:41;0.57;;;0.30;;
20637;SDS011;10478;49.004;8.470;2024-03-23T08:16:07;1.40;;;0.75;;
20637;SDS011;10478;49.004;8.470;2024-03-23T08:18:33;2.45;;;0.90;;
20637;SDS011;10478;49.004;8.470;2024-03-23T08:20:59;1.88;;;1.02;;
20637;SDS011;10478;49.004;8.470;2024-03-23T08:23:27;3.58;;;2.10;;
20637;SDS011;10478;49.004;8.470;2024-03-23T08:25:59;10.90;;;5.05;;
20637;SDS011;10478;49.004;8.470;2024-03-23T08:28:26;9.43;;;3.50;;
20637;SDS011;10478;49.004;8.470;2024-03-23T08:30:52;4.85;;;1.48;;
20637;SDS011;10478;49.004;8.470;2024-03-23T08:33:18;5.78;;;2.05;;
20637;SDS011;10478;49.004;8.470;2024-03-23T08:35:43;7.45;;;2.22;;
20637;SDS011;10478;49.004;8.470;2024-03-23T08:38:18;4.23;;;1.33;;
20637;SDS011;10478;49.004;8.470;2024-03-23T08:40:43;5.18;;;2.15;;
20637;SDS011;10478;49.004;8.470;2024-03-23T08:43:08;5.00;;;1.30;;
20637;SDS011;10478;49.004;8.470;2024-03-23T08:45:34;7.57;;;1.17;;
20637;SDS011;10478;49.004;8.470;2024-03-23T08:47:59;5.53;;;1.67;;
20637;SDS011;10478;49.004;8.470;2024-03-23T08:50:24;5.80;;;1.60;;
20637;SDS011;10478;49.004;8.470;2024-03-23T08:52:50;11.98;;;2.33;;
20637;SDS011;10478;49.004;8.470;2024-03-23T08:55:16;4.13;;;1.75;;
20637;SDS011;10478;49.004;8.470;2024-03-23T08:57:41;8.02;;;1.75;;
20637;SDS011;10478;49.004;8.470;2024-03-23T09:00:07;5.07;;;1.77;;
20637;SDS011;10478;49.004;8.470;2024-03-23T09:02:33;4.53;;;1.52;;
20637;SDS011;10478;49.004;8.470;2024-03-23T09:04:59;4.82;;;1.85;;
20637;SDS011;10478;49.004;8.470;2024-03-23T09:07:29;12.68;;;7.45;;
20637;SDS011;10478;49.004;8.470;2024-03-23T09:09:55;13.82;;;5.72;;
20637;SDS011;10478;49.004;8.470;2024-03-23T09:12:20;11.30;;;5.28;;
20637;SDS011;10478;49.004;8.470;2024-03-23T09:14:45;10.40;;;2.67;;
20637;SDS011;10478;49.004;8.470;2024-03-23T09:17:11;7.35;;;2.33;;
20637;SDS011;10478;49.004;8.470;2024-03-23T09:19:36;6.45;;;1.67;;
20637;SDS011;10478;49.004;8.470;2024-03-23T09:22:01;4.78;;;2.05;;
20637;SDS011;10478;49.004;8.470;2024-03-23T09:24:26;6.05;;;1.67;;
20637;SDS011;10478;49.004;8.470;2024-03-23T09:26:52;9.05;;;2.75;;
20637;SDS011;10478;49.004;8.470;2024-03-23T09:29:17;11.52;;;4.93;;
20637;SDS011;10478;49.004;8.470;2024-03-23T09:31:43;9.75;;;4.93;;
20637;SDS011;10478;49.004;8.470;2024-03-23T09:34:08;6.70;;;3.35;;
20637;SDS011;10478;49.004;8.470;2024-03-23T09:36:33;6.75;;;2.13;;
20637;SDS011;10478;49.004;8.470;2024-03-23T09:38:59;7.93;;;3.10;;
20637;SDS011;10478;49.004;8.470;2024-03-23T09:41:24;6.47;;;2.88;;
20637;SDS011;10478;49.004;8.470;2024-03-23T09:43:52;8.50;;;2.15;;
20637;SDS011;10478;49.004;8.470;2024-03-23T09:46:18;13.40;;;3.70;;
20637;SDS011;10478;49.004;8.470;2024-03-23T09:48:43;8.57;;;2.83;;
20637;SDS011;10478;49.004;8.470;2024-03-23T09:51:11;12.50;;;3.47;;
20637;SDS011;10478;49.004;8.470;2024-03-23T09:53:37;7.50;;;2.50;;
20637;SDS011;10478;49.004;8.470;2024-03-23T09:56:02;9.13;;;3.03;;
20637;SDS011;10478;49.004;8.470;2024-03-23T09:58:27;10.38;;;2.17;;
20637;SDS011;10478;49.004;8.470;2024-03-23T10:00:53;5.85;;;2.13;;
20637;SDS011;10478;49.004;8.470;2024-03-23T10:03:18;7.65;;;1.75;;
20637;SDS011;10478;49.004;8.470;2024-03-23T10:05:43;5.32;;;2.08;;
20637;SDS011;10478;49.004;8.470;2024-03-23T10:10:38;6.00;;;1.98;;
20637;SDS011;10478;49.004;8.470;2024-03-23T10:13:03;8.35;;;2.20;;
20637;SDS011;10478;49.004;8.470;2024-03-23T10:15:29;3.92;;;1.73;;
20637;SDS011;10478;49.004;8.470;2024-03-23T10:17:54;4.22;;;2.22;;
20637;SDS011;10478;49.004;8.470;2024-03-23T10:20:23;4.22;;;2.10;;
20637;SDS011;10478;49.004;8.470;2024-03-23T10:22:51;4.28;;;2.08;;
20637;SDS011;10478;49.004;8.470;2024-03-23T10:25:17;5.65;;;2.10;;
20637;SDS011;10478;49.004;8.470;2024-03-23T10:27:43;6.18;;;2.67;;
20637;SDS011;10478;49.004;8.470;2024-03-23T10:30:09;6.88;;;2.33;;
20637;SDS011;10478;49.004;8.470;2024-03-23T10:32:39;3.72;;;2.35;;
20637;SDS011;10478;49.004;8.470;2024-03-23T10:35:18;7.57;;;2.67;;
20637;SDS011;10478;49.004;8.470;2024-03-23T10:37:45;6.53;;;3.17;;
20637;SDS011;10478;49.004;8.470;2024-03-23T10:40:20;5.82;;;3.05;;
20637;SDS011;10478;49.004;8.470;2024-03-23T10:42:45;8.57;;;5.60;;
20637;SDS011;10478;49.004;8.470;2024-03-23T10:45:10;12.73;;;4.45;;
20637;SDS011;10478;49.004;8.470;2024-03-23T10:47:36;7.63;;;4.15;;
20637;SDS011;10478;49.004;8.470;2024-03-23T10:50:05;10.52;;;4.03;;
20637;SDS011;10478;49.004;8.470;2024-03-23T10:52:31;7.20;;;3.35;;
20637;SDS011;10478;49.004;8.470;2024-03-23T10:54:58;6.38;;;3.22;;
20637;SDS011;10478;49.004;8.470;2024-03-23T10:57:27;6.85;;;3.45;;
20637;SDS011;10478;49.004;8.470;2024-03-23T11:00:05;3.50;;;2.40;;
20637;SDS011;10478;49.004;8.470;2024-03-23T11:02:31;5.47;;;2.33;;
20637;SDS011;10478;49.004;8.470;2024-03-23T11:04:56;4.93;;;2.25;;
20637;SDS011;10478;49.004;8.470;2024-03-23T11:07:29;4.95;;;1.88;;
20637;SDS011;10478;49.004;8.470;2024-03-23T11:09:55;8.50;;;2.92;;
20637;SDS011;10478;49.004;8.470;2024-03-23T11:15:23;9.65;;;2.50;;
20637;SDS011;10478;49.004;8.470;2024-03-23T11:17:41;5.28;;;2.15;;
20637;SDS011;10478;49.004;8.470;2024-03-23T11:20:07;7.72;;;2.92;;
20637;SDS011;10478;49.004;8.470;2024-03-23T11:27:47;4.00;;;1.25;;
20637;SDS011;10478;49.004;8.470;2024-03-23T11:30:14;3.33;;;1.77;;
20637;SDS011;10478;49.004;8.470;2024-03-23T11:32:46;3.85;;;1.75;;
20637;SDS011;10478;49.004;8.470;2024-03-23T11:35:25;2.97;;;1.55;;
20637;SDS011;10478;49.004;8.470;2024-03-23T11:40:36;2.95;;;1.33;;
20637;SDS011;10478;49.004;8.470;2024-03-23T11:43:04;11.13;;;3.97;;
20637;SDS011;10478;49.004;8.470;2024-03-23T11:45:37;7.40;;;2.70;;
20637;SDS011;10478;49.004;8.470;2024-03-23T11:48:12;6.40;;;1.90;;
20637;SDS011;10478;49.004;8.470;2024-03-23T11:50:39;6.15;;;1.98;;
20637;SDS011;10478;49.004;8.470;2024-03-23T11:53:07;6.50;;;2.42;;
20637;SDS011;10478;49.004;8.470;2024-03-23T11:55:43;9.40;;;2.80;;
20637;SDS011;10478;49.004;8.470;2024-03-23T11:58:09;5.88;;;2.53;;
20637;SDS011;10478;49.004;8.470;2024-03-23T12:00:35;7.20;;;2.53;;
20637;SDS011;10478;49.004;8.470;2024-03-23T12:03:04;6.95;;;1.40;;
20637;SDS011;10478;49.004;8.470;2024-03-23T12:05:30;3.65;;;1.60;;
20637;SDS011;10478;49.004;8.470;2024-03-23T12:08:39;6.93;;;2.38;;
20637;SDS011;10478;49.004;8.470;2024-03-23T12:10:50;4.68;;;2.17;;
20637;SDS011;10478;49.004;8.470;2024-03-23T12:13:16;4.15;;;1.60;;
20637;SDS011;10478;49.004;8.470;2024-03-23T12:15:44;5.63;;;1.77;;
20637;SDS011;10478;49.004;8.470;2024-03-23T12:18:10;4.72;;;1.67;;
20637;SDS011;10478;49.004;8.470;2024-03-23T12:20:37;7.05;;;1.70;;
20637;SDS011;10478;49.004;8.470;2024-03-23T12:23:09;8.10;;;1.98;;
20637;SDS011;10478;49.004;8.470;2024-03-23T12:25:39;5.93;;;1.90;;
20637;SDS011;10478;49.004;8.470;2024-03-23T12:28:04;5.72;;;1.73;;
20637;SDS011;10478;49.004;8.470;2024-03-23T12:30:31;3.58;;;1.40;;
20637;SDS011;10478;49.004;8.470;2024-03-23T12:32:57;5.15;;;1.83;;
20637;SDS011;10478;49.004;8.470;2024-03-23T12:35:25;4.10;;;1.80;;
20637;SDS011;10478;49.004;8.470;2024-03-23T12:37:50;3.20;;;1.15;;
20637;SDS011;10478;49.004;8.470;2024-03-23T12:40:16;7.72;;;2.17;;
20637;SDS011;10478;49.004;8.470;2024-03-23T12:42:41;4.07;;;1.35;;
20637;SDS011;10478;49.004;8.470;2024-03-23T12:45:06;8.82;;;2.40;;
20637;SDS011;10478;49.004;8.470;2024-03-23T12:47:32;9.57;;;2.20;;
20637;SDS011;10478;49.004;8.470;2024-03-23T12:49:57;4.75;;;1.38;;
20637;SDS011;10478;49.004;8.470;2024-03-23T12:52:23;3.65;;;1.20;;
20637;SDS011;10478;49.004;8.470;2024-03-23T12:54:53;2.78;;;1.38;;
20637;SDS011;10478;49.004;8.470;2024-03-23T12:57:19;5.60;;;1.75;;
20637;SDS011;10478;49.004;8.470;2024-03-23T12:59:44;2.47;;;1.00;;
20637;SDS011;10478;49.004;8.470;2024-03-23T13:02:15;5.45;;;1.75;;
20637;SDS011;10478;49.004;8.470;2024-03-23T13:04:40;2.10;;;1.00;;
20637;SDS011;10478;49.004;8.470;2024-03-23T13:07:05;4.47;;;0.93;;
20637;SDS011;10478;49.004;8.470;2024-03-23T13:09:32;1.02;;;0.22;;
20637;SDS011;10478;49.004;8.470;2024-03-23T13:11:59;7.15;;;0.65;;
20637;SDS011;10478;49.004;8.470;2024-03-23T13:14:25;3.13;;;0.63;;
20637;SDS011;10478;49.004;8.470;2024-03-23T13:16:50;1.00;;;0.30;;
20637;SDS011;10478;49.004;8.470;2024-03-23T13:19:15;3.15;;;0.75;;
20637;SDS011;10478;49.004;8.470;2024-03-23T13:21:40;1.45;;;0.60;;
20637;SDS011;10478;49.004;8.470;2024-03-23T13:24:06;1.60;;;0.28;;
20637;SDS011;10478;49.004;8.470;2024-03-23T13:26:31;2.70;;;0.32;;
20637;SDS011;10478;49.004;8.470;2024-03-23T13:28:57;4.43;;;1.25;;
20637;SDS011;10478;49.004;8.470;2024-03-23T13:31:22;6.32;;;1.30;;
20637;SDS011;10478;49.004;8.470;2024-03-23T13:33:47;2.08;;;1.08;;
20637;SDS011;10478;49.004;8.470;2024-03-23T13:36:12;2.78;;;1.20;;
20637;SDS011;10478;49.004;8.470;2024-03-23T13:38:38;0.90;;;0.70;;
20637;SDS011;10478;49.004;8.470;2024-03-23T13:41:03;3.60;;;0.73;;
20637;SDS011;10478;49.004;8.470;2024-03-23T13:43:29;1.73;;;0.75;;
20637;SDS011;10478;49.004;8.470;2024-03-23T13:45:58;2.42;;;1.25;;
20637;SDS011;10478;49.004;8.470;2024-03-23T13:48:25;3.53;;;0.95;;
20637;SDS011;10478;49.004;8.470;2024-03-23T13:50:58;4.22;;;1.30;;
20637;SDS011;10478;49.004;8.470;2024-03-23T13:53:24;3.15;;;1.27;;
20637;SDS011;10478;49.004;8.470;2024-03-23T13:55:49;4.85;;;2.13;;
20637;SDS011;10478;49.004;8.470;2024-03-23T13:58:15;1.58;;;0.68;;
20637;SDS011;10478;49.004;8.470;2024-03-23T14:00:41;5.00;;;1.92;;
20637;SDS011;10478;49.004;8.470;2024-03-23T14:03:13;7.65;;;4.32;;
20637;SDS011;10478;49.004;8.470;2024-03-23T14:05:39;7.93;;;2.38;;
20637;SDS011;10478;49.004;8.470;2024-03-23T14:08:08;4.95;;;1.95;;
20637;SDS011;10478;49.004;8.470;2024-03-23T14:10:34;12.05;;;2.67;;
20637;SDS011;10478;49.004;8.470;2024-03-23T14:13:02;2.55;;;0.82;;
20637;SDS011;10478;49.004;8.470;2024-03-23T14:15:28;4.05;;;1.48;;
20637;SDS011;10478;49.004;8.470;2024-03-23T14:17:55;1.77;;;1.00;;
20637;SDS011;10478;49.004;8.470;2024-03-23T14:20:20;6.80;;;1.88;;
20637;SDS011;10478;49.004;8.470;2024-03-23T14:22:46;5.65;;;1.33;;
20637;SDS011;10478;49.004;8.470;2024-03-23T14:25:12;2.20;;;1.23;;
20637;SDS011;10478;49.004;8.470;2024-03-23T14:27:37;7.35;;;2.60;;
20637;SDS011;10478;49.004;8.470;2024-03-23T14:30:03;5.18;;;1.55;;
20637;SDS011;10478;49.004;8.470;2024-03-23T14:32:32;4.50;;;2.35;;
20637;SDS011;10478;49.004;8.470;2024-03-23T14:35:02;6.05;;;2.80;;
20637;SDS011;10478;49.004;8.470;2024-03-23T14:37:28;7.10;;;2.28;;
20637;SDS011;10478;49.004;8.470;2024-03-23T14:39:57;3.58;;;0.68;;
20637;SDS011;10478;49.004;8.470;2024-03-23T14:42:22;1.40;;;0.68;;
20637;SDS011;10478;49.004;8.470;2024-03-23T14:44:48;2.15;;;1.00;;
20637;SDS011;10478;49.004;8.470;2024-03-23T14:47:14;5.40;;;1.50;;
20637;SDS011;10478;49.004;8.470;2024-03-23T14:49:39;2.28;;;1.75;;
20637;SDS011;10478;49.004;8.470;2024-03-23T14:52:04;5.13;;;2.78;;
20637;SDS011;10478;49.004;8.470;2024-03-23T14:54:30;2.45;;;0.50;;
20637;SDS011;10478;49.004;8.470;2024-03-23T14:56:55;3.05;;;1.00;;
20637;SDS011;10478;49.004;8.470;2024-03-23T14:59:23;1.33;;;0.52;;
20637;SDS011;10478;49.004;8.470;2024-03-23T15:01:48;2.47;;;0.82;;
20637;SDS011;10478;49.004;8.470;2024-03-23T15:04:14;4.15;;;1.10;;
20637;SDS011;10478;49.004;8.470;2024-03-23T15:06:39;5.63;;;2.75;;
20637;SDS011;10478;49.004;8.470;2024-03-23T15:09:04;2.58;;;0.70;;
20637;SDS011;10478;49.004;8.470;2024-03-23T15:11:32;1.30;;;0.50;;
20637;SDS011;10478;49.004;8.470;2024-03-23T15:13:58;2.05;;;0.50;;
20637;SDS011;10478;49.004;8.470;2024-03-23T15:16:23;2.58;;;0.57;;
20637;SDS011;10478;49.004;8.470;2024-03-23T15:18:49;2.33;;;0.88;;
20637;SDS011;10478;49.004;8.470;2024-03-23T15:21:14;1.08;;;0.70;;
20637;SDS011;10478;49.004;8.470;2024-03-23T15:23:44;1.13;;;0.57;;
20637;SDS011;10478;49.004;8.470;2024-03-23T15:26:10;4.60;;;0.70;;
20637;SDS011;10478;49.004;8.470;2024-03-23T15:28:35;3.60;;;1.02;;
20637;SDS011;10478;49.004;8.470;2024-03-23T15:31:20;2.88;;;0.80;;
20637;SDS011;10478;49.004;8.470;2024-03-23T15:33:45;9.82;;;2.28;;
20637;SDS011;10478;49.004;8.470;2024-03-23T15:36:10;2.42;;;0.68;;
20637;SDS011;10478;49.004;8.470;2024-03-23T15:38:35;2.80;;;0.60;;
20637;SDS011;10478;49.004;8.470;2024-03-23T15:41:01;4.35;;;0.95;;
20637;SDS011;10478;49.004;8.470;2024-03-23T15:43:28;1.92;;;0.40;;
20637;SDS011;10478;49.004;8.470;2024-03-23T15:45:54;1.70;;;0.60;;